Chauncey, New York
Current Conditions -  °F | °C
As of 9:56 PM on Wednesday 22 Oct 2014 (Local Time) from KHPN Reporting Station
Moderate Rain Moderate Rain  
Wind Chill: 50°   Ceiling: 1000
Heat Index: 50°   Visibility: 7mi
Dew Point: 47°   Wind: 21mph
Humidity: 89%   Direction: 350°N
Pressure: 29.72"   Gusts: 33mph
Location:  41.0065°N, 73.8443°W
Report Text: KHPN 230156Z 35018G29KT 7SM RA BKN010 OVC015 10/08 A2972 RMK AO2 PK WND 35030/0126 SLP066 P0003 T01000083
Loading
Personal Weather Stations






























Interactive Weather Map
Tropical Storm Tracking
New forecast layout! Learn more

10-Day Weather Forecast

Advertisements
Track Severe Weather on mobile